sensor_id;sensor_type;location;lat;lon;timestamp;pressure;altitude;pressure_sealevel;temperature;humidity
46408;BME280;32110;45.724;21.276;2023-06-22T00:00:17;100785.00;;;21.68;nan
46408;BME280;32110;45.724;21.276;2023-06-22T00:02:42;100844.41;;;21.75;nan
46408;BME280;32110;45.724;21.276;2023-06-22T00:05:08;100921.34;;;21.75;nan
46408;BME280;32110;45.724;21.276;2023-06-22T00:09:58;100843.59;;;21.75;nan
46408;BME280;32110;45.724;21.276;2023-06-22T00:12:24;100849.16;;;21.78;nan
46408;BME280;32110;45.724;21.276;2023-06-22T00:14:49;100853.09;;;21.67;nan
46408;BME280;32110;45.724;21.276;2023-06-22T00:17:15;100819.75;;;21.54;nan
46408;BME280;32110;45.724;21.276;2023-06-22T00:19:40;100838.94;;;21.37;nan
46408;BME280;32110;45.724;21.276;2023-06-22T00:22:05;100824.25;;;21.35;nan
46408;BME280;32110;45.724;21.276;2023-06-22T00:24:31;100852.81;;;21.20;nan
46408;BME280;32110;45.724;21.276;2023-06-22T00:26:56;100832.81;;;21.13;nan
46408;BME280;32110;45.724;21.276;2023-06-22T00:29:21;100857.75;;;21.08;nan
46408;BME280;32110;45.724;21.276;2023-06-22T00:31:47;100812.56;;;21.01;nan
46408;BME280;32110;45.724;21.276;2023-06-22T00:34:12;100809.09;;;21.01;nan
46408;BME280;32110;45.724;21.276;2023-06-22T00:36:37;100829.47;;;20.97;nan
46408;BME280;32110;45.724;21.276;2023-06-22T00:39:05;100769.34;;;20.89;nan
46408;BME280;32110;45.724;21.276;2023-06-22T00:41:32;100818.31;;;20.90;nan
46408;BME280;32110;45.724;21.276;2023-06-22T00:43:57;100807.44;;;20.81;nan
46408;BME280;32110;45.724;21.276;2023-06-22T00:46:23;100783.69;;;20.74;nan
46408;BME280;32110;45.724;21.276;2023-06-22T00:48:51;100864.56;;;20.66;nan
46408;BME280;32110;45.724;21.276;2023-06-22T00:51:17;100780.81;;;20.66;nan
46408;BME280;32110;45.724;21.276;2023-06-22T00:53:43;100828.72;;;20.67;nan
46408;BME280;32110;45.724;21.276;2023-06-22T00:56:08;100763.69;;;20.67;nan
46408;BME280;32110;45.724;21.276;2023-06-22T00:58:38;100810.56;;;20.64;nan
46408;BME280;32110;45.724;21.276;2023-06-22T01:01:06;100777.88;;;20.67;nan
46408;BME280;32110;45.724;21.276;2023-06-22T01:03:32;100753.28;;;20.65;nan
46408;BME280;32110;45.724;21.276;2023-06-22T01:06:03;100778.44;;;20.64;nan
46408;BME280;32110;45.724;21.276;2023-06-22T01:08:38;100771.78;;;20.62;nan
46408;BME280;32110;45.724;21.276;2023-06-22T01:11:21;100758.69;;;20.60;nan
46408;BME280;32110;45.724;21.276;2023-06-22T01:16:30;100740.78;;;20.55;nan
46408;BME280;32110;45.724;21.276;2023-06-22T01:18:57;100740.25;;;20.53;nan
46408;BME280;32110;45.724;21.276;2023-06-22T01:21:28;100729.81;;;20.52;nan
46408;BME280;32110;45.724;21.276;2023-06-22T01:26:42;100733.84;;;20.49;nan
46408;BME280;32110;45.724;21.276;2023-06-22T01:29:11;100720.00;;;20.47;nan
46408;BME280;32110;45.724;21.276;2023-06-22T01:31:39;100720.84;;;20.43;nan
46408;BME280;32110;45.724;21.276;2023-06-22T01:34:07;100734.53;;;20.36;nan
46408;BME280;32110;45.724;21.276;2023-06-22T01:36:34;100729.97;;;20.36;nan
46408;BME280;32110;45.724;21.276;2023-06-22T01:39:01;100715.03;;;20.35;nan
46408;BME280;32110;45.724;21.276;2023-06-22T01:41:29;100734.47;;;20.41;nan
46408;BME280;32110;45.724;21.276;2023-06-22T01:43:56;100709.38;;;20.37;nan
46408;BME280;32110;45.724;21.276;2023-06-22T01:46:22;100658.00;;;20.40;nan
46408;BME280;32110;45.724;21.276;2023-06-22T01:48:48;100667.66;;;20.36;nan
46408;BME280;32110;45.724;21.276;2023-06-22T01:51:14;100674.81;;;20.16;nan
46408;BME280;32110;45.724;21.276;2023-06-22T01:53:40;100704.91;;;20.27;nan
46408;BME280;32110;45.724;21.276;2023-06-22T01:56:06;100757.03;;;20.30;nan
46408;BME280;32110;45.724;21.276;2023-06-22T01:58:32;100711.03;;;20.33;nan
46408;BME280;32110;45.724;21.276;2023-06-22T02:01:12;100729.19;;;20.36;nan
46408;BME280;32110;45.724;21.276;2023-06-22T02:06:24;100690.50;;;20.23;nan
46408;BME280;32110;45.724;21.276;2023-06-22T02:11:21;100757.03;;;20.30;nan
46408;BME280;32110;45.724;21.276;2023-06-22T02:13:48;100734.53;;;20.36;nan
46408;BME280;32110;45.724;21.276;2023-06-22T02:16:15;100731.56;;;20.37;nan
46408;BME280;32110;45.724;21.276;2023-06-22T02:18:48;100721.69;;;20.38;nan
46408;BME280;32110;45.724;21.276;2023-06-22T02:21:18;100705.22;;;20.26;nan
46408;BME280;32110;45.724;21.276;2023-06-22T02:23:43;100749.81;;;20.30;nan
46408;BME280;32110;45.724;21.276;2023-06-22T02:26:09;100719.13;;;20.23;nan
46408;BME280;32110;45.724;21.276;2023-06-22T02:31:00;100742.66;;;20.26;nan
46408;BME280;32110;45.724;21.276;2023-06-22T02:35:50;100708.97;;;20.25;nan
46408;BME280;32110;45.724;21.276;2023-06-22T02:45:33;100707.66;;;20.22;nan
46408;BME280;32110;45.724;21.276;2023-06-22T02:47:58;100679.53;;;20.25;nan
46408;BME280;32110;45.724;21.276;2023-06-22T02:50:23;100737.34;;;20.21;nan
46408;BME280;32110;45.724;21.276;2023-06-22T02:52:49;100697.22;;;20.21;nan
46408;BME280;32110;45.724;21.276;2023-06-22T02:55:14;100703.38;;;20.21;nan
46408;BME280;32110;45.724;21.276;2023-06-22T02:57:40;100703.94;;;20.18;nan
46408;BME280;32110;45.724;21.276;2023-06-22T03:00:09;100708.28;;;20.14;nan
46408;BME280;32110;45.724;21.276;2023-06-22T03:02:56;100706.72;;;20.08;nan
46408;BME280;32110;45.724;21.276;2023-06-22T03:05:22;100707.03;;;20.01;nan
46408;BME280;32110;45.724;21.276;2023-06-22T03:07:48;100702.56;;;19.91;nan
46408;BME280;32110;45.724;21.276;2023-06-22T03:10:14;100706.38;;;19.85;nan
46408;BME280;32110;45.724;21.276;2023-06-22T03:12:41;100648.47;;;19.75;nan
46408;BME280;32110;45.724;21.276;2023-06-22T03:15:08;100694.72;;;19.71;nan
46408;BME280;32110;45.724;21.276;2023-06-22T03:17:35;100697.09;;;19.72;nan
46408;BME280;32110;45.724;21.276;2023-06-22T03:20:01;100670.66;;;19.71;nan
46408;BME280;32110;45.724;21.276;2023-06-22T03:22:27;100682.72;;;19.68;nan
46408;BME280;32110;45.724;21.276;2023-06-22T03:27:17;100720.63;;;19.65;nan
46408;BME280;32110;45.724;21.276;2023-06-22T03:32:10;100714.22;;;19.66;nan
46408;BME280;32110;45.724;21.276;2023-06-22T03:34:35;100714.50;;;19.65;nan
46408;BME280;32110;45.724;21.276;2023-06-22T03:37:03;100725.69;;;19.67;nan
46408;BME280;32110;45.724;21.276;2023-06-22T03:41:54;100803.75;;;19.69;nan
46408;BME280;32110;45.724;21.276;2023-06-22T03:44:20;100732.94;;;19.66;nan
46408;BME280;32110;45.724;21.276;2023-06-22T03:46:45;100731.59;;;19.69;nan
46408;BME280;32110;45.724;21.276;2023-06-22T03:49:10;100747.06;;;19.72;nan
46408;BME280;32110;45.724;21.276;2023-06-22T03:51:36;100731.56;;;19.74;nan
46408;BME280;32110;45.724;21.276;2023-06-22T03:54:01;100745.44;;;19.76;nan
46408;BME280;32110;45.724;21.276;2023-06-22T03:56:26;100729.13;;;19.77;nan
46408;BME280;32110;45.724;21.276;2023-06-22T03:58:52;100720.25;;;19.82;nan
46408;BME280;32110;45.724;21.276;2023-06-22T04:01:18;100718.91;;;19.85;nan
46408;BME280;32110;45.724;21.276;2023-06-22T04:03:43;100715.41;;;19.89;nan
46408;BME280;32110;45.724;21.276;2023-06-22T04:06:08;100706.03;;;19.92;nan
46408;BME280;32110;45.724;21.276;2023-06-22T04:08:34;100641.59;;;19.93;nan
46408;BME280;32110;45.724;21.276;2023-06-22T04:10:59;100696.38;;;19.96;nan
46408;BME280;32110;45.724;21.276;2023-06-22T04:15:50;100735.50;;;20.16;nan
46408;BME280;32110;45.724;21.276;2023-06-22T04:20:41;100662.44;;;20.26;nan
46408;BME280;32110;45.724;21.276;2023-06-22T04:23:06;100798.25;;;20.29;nan
46408;BME280;32110;45.724;21.276;2023-06-22T04:25:31;100720.31;;;20.40;nan
46408;BME280;32110;45.724;21.276;2023-06-22T04:27:57;100734.16;;;20.48;nan
46408;BME280;32110;45.724;21.276;2023-06-22T04:30:22;100724.19;;;20.53;nan
46408;BME280;32110;45.724;21.276;2023-06-22T04:32:48;100732.19;;;20.58;nan
46408;BME280;32110;45.724;21.276;2023-06-22T04:35:25;100757.50;;;20.71;nan
46408;BME280;32110;45.724;21.276;2023-06-22T04:37:52;100784.47;;;20.75;nan
46408;BME280;32110;45.724;21.276;2023-06-22T04:40:21;100731.69;;;20.80;nan
46408;BME280;32110;45.724;21.276;2023-06-22T04:42:47;100752.94;;;20.96;nan
46408;BME280;32110;45.724;21.276;2023-06-22T04:45:18;100734.84;;;21.07;nan
46408;BME280;32110;45.724;21.276;2023-06-22T04:47:43;100751.69;;;21.12;nan
46408;BME280;32110;45.724;21.276;2023-06-22T04:50:12;100797.59;;;21.24;nan
46408;BME280;32110;45.724;21.276;2023-06-22T04:52:38;100766.69;;;21.32;nan
46408;BME280;32110;45.724;21.276;2023-06-22T04:55:04;100758.03;;;21.40;nan
46408;BME280;32110;45.724;21.276;2023-06-22T04:57:29;100803.72;;;21.49;nan
46408;BME280;32110;45.724;21.276;2023-06-22T05:00:02;100758.53;;;21.61;nan
46408;BME280;32110;45.724;21.276;2023-06-22T05:02:40;100769.69;;;21.69;nan
46408;BME280;32110;45.724;21.276;2023-06-22T05:05:06;100758.41;;;21.72;nan
46408;BME280;32110;45.724;21.276;2023-06-22T05:07:35;100756.72;;;21.76;nan
46408;BME280;32110;45.724;21.276;2023-06-22T05:10:04;100752.22;;;21.71;nan
46408;BME280;32110;45.724;21.276;2023-06-22T05:12:30;100719.75;;;21.92;nan
46408;BME280;32110;45.724;21.276;2023-06-22T05:14:56;100757.13;;;22.02;nan
46408;BME280;32110;45.724;21.276;2023-06-22T05:17:22;100824.09;;;22.07;nan
46408;BME280;32110;45.724;21.276;2023-06-22T05:19:47;100777.47;;;22.22;nan
46408;BME280;32110;45.724;21.276;2023-06-22T05:22:16;100766.88;;;22.30;nan
46408;BME280;32110;45.724;21.276;2023-06-22T05:24:42;100773.75;;;22.37;nan
46408;BME280;32110;45.724;21.276;2023-06-22T05:27:08;100777.44;;;22.41;nan
46408;BME280;32110;45.724;21.276;2023-06-22T05:29:33;100757.25;;;22.43;nan
46408;BME280;32110;45.724;21.276;2023-06-22T05:34:24;100746.16;;;22.50;nan
46408;BME280;32110;45.724;21.276;2023-06-22T05:36:50;100770.41;;;22.59;nan
46408;BME280;32110;45.724;21.276;2023-06-22T05:39:15;100714.56;;;22.61;nan
46408;BME280;32110;45.724;21.276;2023-06-22T05:41:41;100776.97;;;22.66;nan
46408;BME280;32110;45.724;21.276;2023-06-22T05:44:06;100816.56;;;22.61;nan
46408;BME280;32110;45.724;21.276;2023-06-22T05:46:32;100766.25;;;22.66;nan
46408;BME280;32110;45.724;21.276;2023-06-22T05:48:57;100733.16;;;22.71;nan
46408;BME280;32110;45.724;21.276;2023-06-22T05:51:23;100751.66;;;22.72;nan
46408;BME280;32110;45.724;21.276;2023-06-22T05:56:15;100763.88;;;22.79;nan
46408;BME280;32110;45.724;21.276;2023-06-22T05:58:41;100776.22;;;22.80;nan
46408;BME280;32110;45.724;21.276;2023-06-22T06:01:06;100813.81;;;22.80;nan
46408;BME280;32110;45.724;21.276;2023-06-22T06:03:32;100768.56;;;22.87;nan
46408;BME280;32110;45.724;21.276;2023-06-22T06:08:22;100784.56;;;22.92;nan
46408;BME280;32110;45.724;21.276;2023-06-22T06:10:48;100730.25;;;22.95;nan
46408;BME280;32110;45.724;21.276;2023-06-22T06:13:14;100777.44;;;23.01;nan
46408;BME280;32110;45.724;21.276;2023-06-22T06:15:39;100814.22;;;23.01;nan
46408;BME280;32110;45.724;21.276;2023-06-22T06:18:05;100777.00;;;23.08;nan
46408;BME280;32110;45.724;21.276;2023-06-22T06:20:32;100777.84;;;23.08;nan
46408;BME280;32110;45.724;21.276;2023-06-22T06:22:57;100800.28;;;23.12;nan
46408;BME280;32110;45.724;21.276;2023-06-22T06:25:23;100795.81;;;23.22;nan
46408;BME280;32110;45.724;21.276;2023-06-22T06:27:50;100801.91;;;23.27;nan
46408;BME280;32110;45.724;21.276;2023-06-22T06:30:17;100776.59;;;23.28;nan
46408;BME280;32110;45.724;21.276;2023-06-22T06:35:11;100791.94;;;23.42;nan
46408;BME280;32110;45.724;21.276;2023-06-22T06:37:40;100820.56;;;23.46;nan
46408;BME280;32110;45.724;21.276;2023-06-22T06:40:07;100781.44;;;23.54;nan
46408;BME280;32110;45.724;21.276;2023-06-22T06:42:40;100778.75;;;23.54;nan
46408;BME280;32110;45.724;21.276;2023-06-22T06:45:15;100787.88;;;23.67;nan
46408;BME280;32110;45.724;21.276;2023-06-22T06:47:40;100785.69;;;23.69;nan
46408;BME280;32110;45.724;21.276;2023-06-22T06:50:06;100782.84;;;23.88;nan
46408;BME280;32110;45.724;21.276;2023-06-22T06:52:32;100752.84;;;23.94;nan
46408;BME280;32110;45.724;21.276;2023-06-22T06:54:58;100819.16;;;23.99;nan
46408;BME280;32110;45.724;21.276;2023-06-22T06:57:23;100854.34;;;24.03;nan
46408;BME280;32110;45.724;21.276;2023-06-22T06:59:49;100816.38;;;24.04;nan
46408;BME280;32110;45.724;21.276;2023-06-22T07:04:44;100829.50;;;24.06;nan
46408;BME280;32110;45.724;21.276;2023-06-22T07:07:09;100823.34;;;24.05;nan
46408;BME280;32110;45.724;21.276;2023-06-22T07:09:35;100830.00;;;24.08;nan
46408;BME280;32110;45.724;21.276;2023-06-22T07:12:00;100841.75;;;24.12;nan
46408;BME280;32110;45.724;21.276;2023-06-22T07:14:25;100845.72;;;24.14;nan
46408;BME280;32110;45.724;21.276;2023-06-22T07:16:51;100863.06;;;24.08;nan
46408;BME280;32110;45.724;21.276;2023-06-22T07:19:24;100813.22;;;24.11;nan
46408;BME280;32110;45.724;21.276;2023-06-22T07:21:49;100838.25;;;24.11;nan
46408;BME280;32110;45.724;21.276;2023-06-22T07:24:14;100911.31;;;24.05;nan
46408;BME280;32110;45.724;21.276;2023-06-22T07:29:11;100860.50;;;24.03;nan
46408;BME280;32110;45.724;21.276;2023-06-22T07:31:36;100859.09;;;24.06;nan
46408;BME280;32110;45.724;21.276;2023-06-22T07:34:02;100862.78;;;24.10;nan
46408;BME280;32110;45.724;21.276;2023-06-22T07:36:28;100884.78;;;24.12;nan
46408;BME280;32110;45.724;21.276;2023-06-22T07:38:55;100902.34;;;24.09;nan
46408;BME280;32110;45.724;21.276;2023-06-22T07:41:20;100948.38;;;24.08;nan
46408;BME280;32110;45.724;21.276;2023-06-22T07:43:46;100881.41;;;24.06;nan
46408;BME280;32110;45.724;21.276;2023-06-22T07:46:11;100875.66;;;23.99;nan
46408;BME280;32110;45.724;21.276;2023-06-22T07:48:37;100887.22;;;23.99;nan
46408;BME280;32110;45.724;21.276;2023-06-22T07:51:03;100857.38;;;23.87;nan
46408;BME280;32110;45.724;21.276;2023-06-22T07:53:28;100893.94;;;23.74;nan
46408;BME280;32110;45.724;21.276;2023-06-22T07:55:54;100942.63;;;23.73;nan
46408;BME280;32110;45.724;21.276;2023-06-22T07:58:19;100884.47;;;23.77;nan
46408;BME280;32110;45.724;21.276;2023-06-22T08:00:46;100878.09;;;23.73;nan
46408;BME280;32110;45.724;21.276;2023-06-22T08:03:12;100935.66;;;23.72;nan
46408;BME280;32110;45.724;21.276;2023-06-22T08:05:38;100935.06;;;23.75;nan
46408;BME280;32110;45.724;21.276;2023-06-22T08:08:04;100906.19;;;23.67;nan
46408;BME280;32110;45.724;21.276;2023-06-22T08:10:29;100981.06;;;23.60;nan
46408;BME280;32110;45.724;21.276;2023-06-22T08:12:54;100926.91;;;23.52;nan
46408;BME280;32110;45.724;21.276;2023-06-22T08:15:20;100921.72;;;23.42;nan
46408;BME280;32110;45.724;21.276;2023-06-22T08:17:47;100948.50;;;23.47;nan
46408;BME280;32110;45.724;21.276;2023-06-22T08:20:12;100911.06;;;23.37;nan
46408;BME280;32110;45.724;21.276;2023-06-22T08:22:42;100979.56;;;23.40;nan
46408;BME280;32110;45.724;21.276;2023-06-22T08:25:08;100939.03;;;23.36;nan
46408;BME280;32110;45.724;21.276;2023-06-22T08:27:34;100910.06;;;23.33;nan
46408;BME280;32110;45.724;21.276;2023-06-22T08:30:00;100876.72;;;23.34;nan
46408;BME280;32110;45.724;21.276;2023-06-22T08:32:29;100866.88;;;23.29;nan
46408;BME280;32110;45.724;21.276;2023-06-22T08:34:56;100913.16;;;23.26;nan
46408;BME280;32110;45.724;21.276;2023-06-22T08:37:22;100959.72;;;23.22;nan
46408;BME280;32110;45.724;21.276;2023-06-22T08:40:03;100966.59;;;23.28;nan
46408;BME280;32110;45.724;21.276;2023-06-22T08:42:33;100912.34;;;23.26;nan
46408;BME280;32110;45.724;21.276;2023-06-22T08:44:59;100967.59;;;23.32;nan
46408;BME280;32110;45.724;21.276;2023-06-22T08:47:25;100921.72;;;23.28;nan
46408;BME280;32110;45.724;21.276;2023-06-22T08:49:50;100921.31;;;23.35;nan
46408;BME280;32110;45.724;21.276;2023-06-22T08:52:17;100924.50;;;23.37;nan
46408;BME280;32110;45.724;21.276;2023-06-22T08:54:43;100924.69;;;23.41;nan
46408;BME280;32110;45.724;21.276;2023-06-22T08:57:09;100920.50;;;23.48;nan
46408;BME280;32110;45.724;21.276;2023-06-22T08:59:35;100859.50;;;23.49;nan
46408;BME280;32110;45.724;21.276;2023-06-22T09:02:00;100869.53;;;23.57;nan
46408;BME280;32110;45.724;21.276;2023-06-22T09:04:25;100891.06;;;23.57;nan
46408;BME280;32110;45.724;21.276;2023-06-22T09:06:51;100897.91;;;23.63;nan
46408;BME280;32110;45.724;21.276;2023-06-22T09:09:17;100940.63;;;23.65;nan
46408;BME280;32110;45.724;21.276;2023-06-22T09:11:43;100924.72;;;23.68;nan
46408;BME280;32110;45.724;21.276;2023-06-22T09:14:09;100902.09;;;23.69;nan
46408;BME280;32110;45.724;21.276;2023-06-22T09:16:35;100950.19;;;23.71;nan
46408;BME280;32110;45.724;21.276;2023-06-22T09:19:00;100876.72;;;23.75;nan
46408;BME280;32110;45.724;21.276;2023-06-22T09:21:26;100874.81;;;23.76;nan
46408;BME280;32110;45.724;21.276;2023-06-22T09:23:51;100867.75;;;23.80;nan
46408;BME280;32110;45.724;21.276;2023-06-22T09:26:18;100806.97;;;23.79;nan
46408;BME280;32110;45.724;21.276;2023-06-22T09:28:43;100864.75;;;23.82;nan
46408;BME280;32110;45.724;21.276;2023-06-22T09:31:09;100891.47;;;23.78;nan
46408;BME280;32110;45.724;21.276;2023-06-22T09:33:35;100823.13;;;23.79;nan
46408;BME280;32110;45.724;21.276;2023-06-22T09:36:00;100849.09;;;23.84;nan
46408;BME280;32110;45.724;21.276;2023-06-22T09:40:51;100852.44;;;24.03;nan
46408;BME280;32110;45.724;21.276;2023-06-22T09:43:16;100858.50;;;24.09;nan
46408;BME280;32110;45.724;21.276;2023-06-22T09:45:42;100863.75;;;24.14;nan
46408;BME280;32110;45.724;21.276;2023-06-22T09:48:08;100876.31;;;24.18;nan
46408;BME280;32110;45.724;21.276;2023-06-22T09:50:35;100864.31;;;24.25;nan
46408;BME280;32110;45.724;21.276;2023-06-22T09:53:00;100871.72;;;24.19;nan
46408;BME280;32110;45.724;21.276;2023-06-22T09:55:25;100872.88;;;24.27;nan
46408;BME280;32110;45.724;21.276;2023-06-22T09:57:51;100879.03;;;24.27;nan
46408;BME280;32110;45.724;21.276;2023-06-22T10:00:16;100869.06;;;24.28;nan
46408;BME280;32110;45.724;21.276;2023-06-22T10:02:42;100851.34;;;24.27;nan
46408;BME280;32110;45.724;21.276;2023-06-22T10:05:08;100877.22;;;24.36;nan
46408;BME280;32110;45.724;21.276;2023-06-22T10:07:34;100926.75;;;24.49;nan
46408;BME280;32110;45.724;21.276;2023-06-22T10:09:59;100890.53;;;24.55;nan
46408;BME280;32110;45.724;21.276;2023-06-22T10:12:26;100876.75;;;24.57;nan
46408;BME280;32110;45.724;21.276;2023-06-22T10:14:52;100882.50;;;24.64;nan
46408;BME280;32110;45.724;21.276;2023-06-22T10:17:17;100883.88;;;24.84;nan
46408;BME280;32110;45.724;21.276;2023-06-22T10:19:43;100889.19;;;24.98;nan
46408;BME280;32110;45.724;21.276;2023-06-22T10:22:08;100898.56;;;25.09;nan
46408;BME280;32110;45.724;21.276;2023-06-22T10:24:33;100859.25;;;25.08;nan
46408;BME280;32110;45.724;21.276;2023-06-22T10:26:59;100888.41;;;25.06;nan
46408;BME280;32110;45.724;21.276;2023-06-22T10:29:24;100868.56;;;25.02;nan
46408;BME280;32110;45.724;21.276;2023-06-22T10:31:50;100886.16;;;24.99;nan
46408;BME280;32110;45.724;21.276;2023-06-22T10:34:15;100877.16;;;25.04;nan
46408;BME280;32110;45.724;21.276;2023-06-22T10:36:40;100848.19;;;25.10;nan
46408;BME280;32110;45.724;21.276;2023-06-22T10:39:06;100880.38;;;25.15;nan
46408;BME280;32110;45.724;21.276;2023-06-22T10:41:31;100815.50;;;25.11;nan
46408;BME280;32110;45.724;21.276;2023-06-22T10:43:57;100889.09;;;25.12;nan
46408;BME280;32110;45.724;21.276;2023-06-22T10:46:24;100859.59;;;25.15;nan
46408;BME280;32110;45.724;21.276;2023-06-22T10:48:50;100876.28;;;25.17;nan
46408;BME280;32110;45.724;21.276;2023-06-22T10:51:16;100897.84;;;25.17;nan
46408;BME280;32110;45.724;21.276;2023-06-22T10:53:41;100848.41;;;25.22;nan
46408;BME280;32110;45.724;21.276;2023-06-22T10:56:08;100857.91;;;25.19;nan
46408;BME280;32110;45.724;21.276;2023-06-22T10:58:33;100891.66;;;25.17;nan
46408;BME280;32110;45.724;21.276;2023-06-22T11:00:59;100940.69;;;25.28;nan
46408;BME280;32110;45.724;21.276;2023-06-22T11:03:24;100876.66;;;25.33;nan
46408;BME280;32110;45.724;21.276;2023-06-22T11:05:49;100892.53;;;25.35;nan
46408;BME280;32110;45.724;21.276;2023-06-22T11:08:15;100947.06;;;25.32;nan
46408;BME280;32110;45.724;21.276;2023-06-22T11:10:40;100875.03;;;25.23;nan
46408;BME280;32110;45.724;21.276;2023-06-22T11:13:06;100854.91;;;25.30;nan
46408;BME280;32110;45.724;21.276;2023-06-22T11:15:34;100849.84;;;25.28;nan
46408;BME280;32110;45.724;21.276;2023-06-22T11:18:00;100832.56;;;25.29;nan
46408;BME280;32110;45.724;21.276;2023-06-22T11:20:25;100846.19;;;25.33;nan
46408;BME280;32110;45.724;21.276;2023-06-22T11:22:50;100826.09;;;25.39;nan
46408;BME280;32110;45.724;21.276;2023-06-22T11:25:16;100818.16;;;25.42;nan
46408;BME280;32110;45.724;21.276;2023-06-22T11:27:41;100838.28;;;25.45;nan
46408;BME280;32110;45.724;21.276;2023-06-22T11:30:07;100832.91;;;25.45;nan
46408;BME280;32110;45.724;21.276;2023-06-22T11:32:33;100831.31;;;25.44;nan
46408;BME280;32110;45.724;21.276;2023-06-22T11:37:24;100831.81;;;25.46;nan
46408;BME280;32110;45.724;21.276;2023-06-22T11:39:49;100837.06;;;25.51;nan
46408;BME280;32110;45.724;21.276;2023-06-22T11:42:15;100835.94;;;25.52;nan
46408;BME280;32110;45.724;21.276;2023-06-22T11:44:41;100838.34;;;25.62;nan
46408;BME280;32110;45.724;21.276;2023-06-22T11:47:07;100817.09;;;25.70;nan
46408;BME280;32110;45.724;21.276;2023-06-22T11:49:32;100833.75;;;25.72;nan
46408;BME280;32110;45.724;21.276;2023-06-22T11:51:58;100868.97;;;25.75;nan
46408;BME280;32110;45.724;21.276;2023-06-22T11:54:23;100833.75;;;25.72;nan
46408;BME280;32110;45.724;21.276;2023-06-22T11:56:49;100821.66;;;25.69;nan
46408;BME280;32110;45.724;21.276;2023-06-22T11:59:14;100821.84;;;25.73;nan
46408;BME280;32110;45.724;21.276;2023-06-22T12:01:39;100805.00;;;25.76;nan
46408;BME280;32110;45.724;21.276;2023-06-22T12:04:05;100800.25;;;25.73;nan
46408;BME280;32110;45.724;21.276;2023-06-22T12:06:32;100795.00;;;25.76;nan
46408;BME280;32110;45.724;21.276;2023-06-22T12:08:57;100808.81;;;25.83;nan
46408;BME280;32110;45.724;21.276;2023-06-22T12:11:23;100799.50;;;25.89;nan
46408;BME280;32110;45.724;21.276;2023-06-22T12:13:48;100874.56;;;25.96;nan
46408;BME280;32110;45.724;21.276;2023-06-22T12:16:14;100792.19;;;26.07;nan
46408;BME280;32110;45.724;21.276;2023-06-22T12:18:39;100781.53;;;26.20;nan
46408;BME280;32110;45.724;21.276;2023-06-22T12:21:04;100791.81;;;26.26;nan
46408;BME280;32110;45.724;21.276;2023-06-22T12:23:30;100775.28;;;26.37;nan
46408;BME280;32110;45.724;21.276;2023-06-22T12:25:55;100761.25;;;26.52;nan
46408;BME280;32110;45.724;21.276;2023-06-22T12:28:21;100743.78;;;26.58;nan
46408;BME280;32110;45.724;21.276;2023-06-22T12:30:46;100768.78;;;26.76;nan
46408;BME280;32110;45.724;21.276;2023-06-22T12:33:11;100747.97;;;26.77;nan
46408;BME280;32110;45.724;21.276;2023-06-22T12:38:02;100733.91;;;26.92;nan
46408;BME280;32110;45.724;21.276;2023-06-22T12:40:28;100813.16;;;27.05;nan
46408;BME280;32110;45.724;21.276;2023-06-22T12:42:53;100748.75;;;27.07;nan
46408;BME280;32110;45.724;21.276;2023-06-22T12:45:19;100806.00;;;27.09;nan
46408;BME280;32110;45.724;21.276;2023-06-22T12:47:46;100744.41;;;27.23;nan
46408;BME280;32110;45.724;21.276;2023-06-22T12:50:11;100759.94;;;27.26;nan
46408;BME280;32110;45.724;21.276;2023-06-22T12:52:37;100773.63;;;27.30;nan
46408;BME280;32110;45.724;21.276;2023-06-22T12:55:06;100750.38;;;27.29;nan
46408;BME280;32110;45.724;21.276;2023-06-22T12:57:31;100756.59;;;27.29;nan
46408;BME280;32110;45.724;21.276;2023-06-22T12:59:57;100793.47;;;27.34;nan
46408;BME280;32110;45.724;21.276;2023-06-22T13:02:23;100745.31;;;27.48;nan
46408;BME280;32110;45.724;21.276;2023-06-22T13:04:49;100751.31;;;27.54;nan
46408;BME280;32110;45.724;21.276;2023-06-22T13:07:14;100750.66;;;27.57;nan
46408;BME280;32110;45.724;21.276;2023-06-22T13:09:40;100731.84;;;27.61;nan
46408;BME280;32110;45.724;21.276;2023-06-22T13:12:05;100739.88;;;27.69;nan
46408;BME280;32110;45.724;21.276;2023-06-22T13:14:31;100737.19;;;27.69;nan
46408;BME280;32110;45.724;21.276;2023-06-22T13:16:56;100720.72;;;27.74;nan
46408;BME280;32110;45.724;21.276;2023-06-22T13:19:21;100727.19;;;27.82;nan
46408;BME280;32110;45.724;21.276;2023-06-22T13:21:47;100765.69;;;27.88;nan
46408;BME280;32110;45.724;21.276;2023-06-22T13:24:12;100726.44;;;27.94;nan
46408;BME280;32110;45.724;21.276;2023-06-22T13:26:38;100789.06;;;27.92;nan
46408;BME280;32110;45.724;21.276;2023-06-22T13:29:04;100717.44;;;27.90;nan
46408;BME280;32110;45.724;21.276;2023-06-22T13:33:54;100654.94;;;27.83;nan
46408;BME280;32110;45.724;21.276;2023-06-22T13:36:20;100729.84;;;27.91;nan
46408;BME280;32110;45.724;21.276;2023-06-22T13:38:46;100712.69;;;27.99;nan
46408;BME280;32110;45.724;21.276;2023-06-22T13:41:12;100698.97;;;28.04;nan
46408;BME280;32110;45.724;21.276;2023-06-22T13:43:37;100697.75;;;28.14;nan
46408;BME280;32110;45.724;21.276;2023-06-22T13:46:03;100682.06;;;28.19;nan
46408;BME280;32110;45.724;21.276;2023-06-22T13:48:28;100736.59;;;28.30;nan
46408;BME280;32110;45.724;21.276;2023-06-22T13:50:54;100707.03;;;28.37;nan
46408;BME280;32110;45.724;21.276;2023-06-22T13:53:19;100722.69;;;28.44;nan
46408;BME280;32110;45.724;21.276;2023-06-22T13:55:45;100691.13;;;28.48;nan